Time;durP1;ratioP1;P1;durP2;ratioP2;P2;SDS_P1;SDS_P2;PMS_P1;PMS_P2;Temp;Humidity;BMP_temperature;BMP_pressure;BME280_temperature;BME280_humidity;BME280_pressure;Samples;Min_cycle;Max_cycle;Signal;HPM_P1;HPM_P2
2022/10/25 00:01:53;;;;;;;;;;;13.30;99.90;;;;;;5051493;28;20335;-56
2022/10/25 00:04:20;;;;;;;;;;;13.20;99.90;;;;;;5051434;28;19941;-56
2022/10/25 00:06:46;;;;;;;;;;;13.20;99.90;;;;;;5051132;28;19928;-56
2022/10/25 00:09:14;;;;;;;;;;;13.20;99.90;;;;;;5051651;28;19936;-56
2022/10/25 00:11:42;;;;;;;;;;;13.20;99.90;;;;;;5050652;28;19933;-56
2022/10/25 00:14:08;;;;;;;;;;;13.20;99.90;;;;;;5050884;28;20480;-56
2022/10/25 00:16:36;;;;;;;;;;;13.20;99.90;;;;;;5049692;28;19928;-56
2022/10/25 00:19:03;;;;;;;;;;;13.20;99.90;;;;;;5050183;28;20391;-56
2022/10/25 00:21:31;;;;;;;;;;;13.20;99.90;;;;;;5051219;28;19932;-56
2022/10/25 00:23:57;;;;;;;;;;;13.20;99.90;;;;;;5051550;28;19928;-56
2022/10/25 00:26:25;;;;;;;;;;;13.20;99.90;;;;;;5050770;28;19936;-56
2022/10/25 00:28:53;;;;;;;;;;;13.20;99.90;;;;;;5051620;28;19929;-56
2022/10/25 00:31:19;;;;;;;;;;;13.20;99.90;;;;;;5051483;28;19939;-56
2022/10/25 00:33:46;;;;;;;;;;;13.20;99.90;;;;;;5050387;28;19928;-56
2022/10/25 00:36:14;;;;;;;;;;;13.20;99.90;;;;;;5050908;28;19935;-56
2022/10/25 00:38:41;;;;;;;;;;;13.20;99.90;;;;;;5051956;28;19928;-56
2022/10/25 00:41:08;;;;;;;;;;;13.20;99.90;;;;;;5051604;28;19937;-56
2022/10/25 00:43:37;;;;;;;;;;;13.20;99.90;;;;;;5050504;28;20408;-56
2022/10/25 00:46:05;;;;;;;;;;;13.20;99.90;;;;;;5052208;28;19936;-56
2022/10/25 00:48:32;;;;;;;;;;;13.20;99.90;;;;;;5050275;28;19928;-56
2022/10/25 00:51:00;;;;;;;;;;;13.30;99.90;;;;;;5050560;28;19933;-56
2022/10/25 00:53:28;;;;;;;;;;;13.30;99.90;;;;;;5051901;28;19929;-56
2022/10/25 00:55:57;;;;;;;;;;;13.30;99.90;;;;;;5050842;28;21049;-56
2022/10/25 00:58:26;;;;;;;;;;;13.30;99.90;;;;;;5050784;28;19929;-56
2022/10/25 01:00:55;;;;;;;;;;;13.30;99.90;;;;;;5050672;28;19944;-56
2022/10/25 01:03:23;;;;;;;;;;;13.40;99.90;;;;;;5050941;28;19974;-56
2022/10/25 01:05:50;;;;;;;;;;;13.40;99.90;;;;;;5049756;28;19929;-56
2022/10/25 01:08:17;;;;;;;;;;;13.40;99.90;;;;;;5050854;28;20443;-56
2022/10/25 01:10:44;;;;;;;;;;;13.40;99.90;;;;;;5050282;28;20003;-56
2022/10/25 01:13:10;;;;;;;;;;;13.40;99.90;;;;;;5050232;28;19935;-56
2022/10/25 01:15:41;;;;;;;;;;;13.40;99.90;;;;;;5049639;28;19928;-56
2022/10/25 01:18:12;;;;;;;;;;;13.50;99.90;;;;;;5050485;28;19936;-56
2022/10/25 01:21:03;;;;;;;;;;;13.50;99.90;;;;;;5049307;28;19933;-56
2022/10/25 01:23:44;;;;;;;;;;;13.50;99.90;;;;;;5050117;28;19941;-56
2022/10/25 01:26:23;;;;;;;;;;;13.50;99.90;;;;;;5047275;28;19933;-56
2022/10/25 01:28:55;;;;;;;;;;;13.50;99.90;;;;;;5050304;28;22095;-56
2022/10/25 01:31:31;;;;;;;;;;;13.50;99.90;;;;;;5050287;28;20989;-56
2022/10/25 01:34:01;;;;;;;;;;;13.50;99.90;;;;;;5049600;28;19932;-56
2022/10/25 01:36:34;;;;;;;;;;;13.50;99.90;;;;;;5050026;28;19929;-56
2022/10/25 01:39:06;;;;;;;;;;;13.50;99.90;;;;;;5049708;28;19939;-56
2022/10/25 01:41:36;;;;;;;;;;;13.50;99.90;;;;;;5050361;28;20386;-56
2022/10/25 01:44:12;;;;;;;;;;;13.50;99.90;;;;;;5049226;28;19936;-56
2022/10/25 01:46:44;;;;;;;;;;;13.50;99.90;;;;;;5049603;28;20023;-56
2022/10/25 01:49:14;;;;;;;;;;;13.50;99.90;;;;;;5049284;28;19928;-56
2022/10/25 01:51:40;;;;;;;;;;;13.50;99.90;;;;;;5050717;28;19932;-56
2022/10/25 01:54:17;;;;;;;;;;;13.50;99.90;;;;;;5049424;28;20501;-56
2022/10/25 01:56:47;;;;;;;;;;;13.50;99.90;;;;;;5049800;28;19936;-56
2022/10/25 01:59:20;;;;;;;;;;;13.50;99.90;;;;;;5050426;28;19933;-56
2022/10/25 02:01:58;;;;;;;;;;;13.50;99.90;;;;;;5049590;28;19932;-56
2022/10/25 02:04:30;;;;;;;;;;;13.50;99.90;;;;;;5049467;28;21026;-56
2022/10/25 02:07:00;;;;;;;;;;;13.60;99.90;;;;;;5050580;28;19933;-56
2022/10/25 02:09:30;;;;;;;;;;;13.60;99.90;;;;;;5050467;28;19929;-56
2022/10/25 02:11:57;;;;;;;;;;;13.60;99.90;;;;;;5049024;28;19933;-56
2022/10/25 02:14:27;;;;;;;;;;;13.60;99.90;;;;;;5048899;28;19929;-56
2022/10/25 02:16:57;;;;;;;;;;;13.60;99.90;;;;;;5049787;28;19933;-56
2022/10/25 02:19:30;;;;;;;;;;;13.60;99.90;;;;;;5049303;28;19935;-56
2022/10/25 02:21:57;;;;;;;;;;;13.60;99.90;;;;;;5049286;28;20799;-56
2022/10/25 02:24:25;;;;;;;;;;;13.60;99.90;;;;;;5050046;28;20751;-56
2022/10/25 02:26:53;;;;;;;;;;;13.60;99.90;;;;;;5049430;28;19936;-56
2022/10/25 02:29:21;;;;;;;;;;;13.60;99.90;;;;;;5049047;28;19929;-56
2022/10/25 02:31:47;;;;;;;;;;;13.60;99.90;;;;;;5049632;28;19933;-56
2022/10/25 02:34:15;;;;;;;;;;;13.60;99.90;;;;;;5048710;28;19935;-56
2022/10/25 02:36:42;;;;;;;;;;;13.70;99.90;;;;;;5047970;28;19929;-56
2022/10/25 02:39:09;;;;;;;;;;;13.70;99.90;;;;;;5048461;28;19935;-56
2022/10/25 02:41:35;;;;;;;;;;;13.70;99.90;;;;;;5048889;28;19943;-56
2022/10/25 02:44:02;;;;;;;;;;;13.70;99.90;;;;;;5047995;28;19936;-55
2022/10/25 02:46:29;;;;;;;;;;;13.70;99.90;;;;;;5048828;28;20696;-56
2022/10/25 02:48:55;;;;;;;;;;;13.70;99.90;;;;;;5048208;28;19933;-56
2022/10/25 02:51:23;;;;;;;;;;;13.70;99.90;;;;;;5049104;28;20729;-56
2022/10/25 02:53:50;;;;;;;;;;;13.70;99.90;;;;;;5048701;28;19975;-56
2022/10/25 02:56:18;;;;;;;;;;;13.70;99.90;;;;;;5049027;28;20676;-56
2022/10/25 02:58:45;;;;;;;;;;;13.80;99.90;;;;;;5049324;28;19928;-56
2022/10/25 03:01:14;;;;;;;;;;;13.80;99.90;;;;;;5046444;28;22046;-56
2022/10/25 03:03:41;;;;;;;;;;;13.80;99.90;;;;;;5047922;28;20006;-56
2022/10/25 03:06:08;;;;;;;;;;;13.80;99.90;;;;;;5048362;28;20520;-56
2022/10/25 03:08:37;;;;;;;;;;;13.80;99.90;;;;;;5047513;28;19928;-56
2022/10/25 03:11:04;;;;;;;;;;;13.80;99.90;;;;;;5049374;28;20383;-56
2022/10/25 03:13:30;;;;;;;;;;;13.80;99.90;;;;;;5048369;28;19929;-56
2022/10/25 03:15:57;;;;;;;;;;;13.80;99.90;;;;;;5046954;28;19933;-56
2022/10/25 03:18:24;;;;;;;;;;;13.80;99.90;;;;;;5048284;28;19936;-56
2022/10/25 03:20:50;;;;;;;;;;;13.80;99.90;;;;;;5048561;28;19932;-56
2022/10/25 03:23:18;;;;;;;;;;;13.80;99.90;;;;;;5051396;28;19936;-56
2022/10/25 03:25:46;;;;;;;;;;;13.80;99.90;;;;;;5052876;28;19940;-56
2022/10/25 03:28:12;;;;;;;;;;;13.80;99.90;;;;;;5051521;28;19933;-56
2022/10/25 03:30:41;;;;;;;;;;;13.80;99.90;;;;;;5051528;28;19932;-55
2022/10/25 03:33:08;;;;;;;;;;;13.80;99.90;;;;;;5052802;28;20377;-55
2022/10/25 03:35:34;;;;;;;;;;;13.80;99.90;;;;;;5052887;28;19929;-55
2022/10/25 03:38:01;;;;;;;;;;;13.80;99.90;;;;;;5052144;28;20874;-55
2022/10/25 03:40:28;;;;;;;;;;;13.80;99.90;;;;;;5051385;28;19933;-55
2022/10/25 03:42:56;;;;;;;;;;;13.80;99.90;;;;;;5051978;28;19928;-55
2022/10/25 03:45:22;;;;;;;;;;;13.80;99.90;;;;;;5050882;28;19932;-55
2022/10/25 03:47:49;;;;;;;;;;;13.80;99.90;;;;;;5051908;28;19928;-55
2022/10/25 03:50:16;;;;;;;;;;;13.80;99.90;;;;;;5051556;28;19943;-55
2022/10/25 03:52:43;;;;;;;;;;;13.80;99.90;;;;;;5052483;28;19955;-55
2022/10/25 03:55:10;;;;;;;;;;;13.70;99.90;;;;;;5050793;28;19929;-55
2022/10/25 03:57:36;;;;;;;;;;;13.70;99.90;;;;;;5051504;28;19936;-56
2022/10/25 04:00:05;;;;;;;;;;;13.70;99.90;;;;;;5051019;28;19938;-55
2022/10/25 04:02:31;;;;;;;;;;;13.70;99.90;;;;;;5051998;28;19935;-55
2022/10/25 04:04:58;;;;;;;;;;;13.70;99.90;;;;;;5050735;28;21731;-55
2022/10/25 04:07:25;;;;;;;;;;;13.70;99.90;;;;;;5051297;28;19929;-55
2022/10/25 04:09:51;;;;;;;;;;;13.70;99.90;;;;;;5050797;28;19938;-56
2022/10/25 04:12:18;;;;;;;;;;;13.70;99.90;;;;;;5051783;28;19935;-55
2022/10/25 04:14:44;;;;;;;;;;;13.70;99.90;;;;;;5051240;28;19939;-55
2022/10/25 04:17:13;;;;;;;;;;;13.70;99.90;;;;;;5051140;28;19929;-55
2022/10/25 04:19:39;;;;;;;;;;;13.70;99.90;;;;;;5052443;28;19933;-55
2022/10/25 04:22:06;;;;;;;;;;;13.60;99.90;;;;;;5050552;28;19935;-54
2022/10/25 04:24:32;;;;;;;;;;;13.60;99.90;;;;;;5051273;28;19940;-55
2022/10/25 04:26:59;;;;;;;;;;;13.60;99.90;;;;;;5050861;28;19935;-55
2022/10/25 04:29:26;;;;;;;;;;;13.60;99.90;;;;;;5051243;28;22163;-55
2022/10/25 04:31:52;;;;;;;;;;;13.60;99.90;;;;;;5051419;28;19935;-55
2022/10/25 04:34:20;;;;;;;;;;;13.60;99.90;;;;;;5049745;28;19929;-55
2022/10/25 04:36:47;;;;;;;;;;;13.60;99.90;;;;;;5049437;28;19939;-55
2022/10/25 04:39:14;;;;;;;;;;;13.60;99.90;;;;;;5044525;28;19933;-56
2022/10/25 04:41:41;;;;;;;;;;;13.50;99.90;;;;;;5047269;28;19929;-55
2022/10/25 04:44:07;;;;;;;;;;;13.50;99.90;;;;;;5048170;28;20620;-55
2022/10/25 04:46:34;;;;;;;;;;;13.50;99.90;;;;;;5049220;28;20851;-55
2022/10/25 04:49:00;;;;;;;;;;;13.50;99.90;;;;;;5046283;28;19940;-56
2022/10/25 04:51:28;;;;;;;;;;;13.50;99.90;;;;;;5047439;28;20387;-55
2022/10/25 04:53:55;;;;;;;;;;;13.50;99.90;;;;;;5046468;28;20652;-55
2022/10/25 04:56:22;;;;;;;;;;;13.40;99.90;;;;;;5046709;28;20399;-55
2022/10/25 04:58:49;;;;;;;;;;;13.40;99.90;;;;;;5046323;28;19940;-55
2022/10/25 05:01:16;;;;;;;;;;;13.40;99.90;;;;;;5047196;28;19935;-55
2022/10/25 05:03:43;;;;;;;;;;;13.40;99.90;;;;;;5048425;28;20692;-55
2022/10/25 05:06:11;;;;;;;;;;;13.40;99.90;;;;;;5047426;28;19935;-55
2022/10/25 05:08:40;;;;;;;;;;;13.40;99.90;;;;;;5048030;28;19995;-55
2022/10/25 05:11:06;;;;;;;;;;;13.40;99.90;;;;;;5048072;28;20402;-55
2022/10/25 05:13:33;;;;;;;;;;;13.40;99.90;;;;;;5047057;28;19940;-55
2022/10/25 05:16:00;;;;;;;;;;;13.40;99.90;;;;;;5048944;28;19929;-55
2022/10/25 05:18:27;;;;;;;;;;;13.40;99.90;;;;;;5048047;28;19934;-55
2022/10/25 05:20:54;;;;;;;;;;;13.40;99.90;;;;;;5048418;28;19933;-55
2022/10/25 05:23:21;;;;;;;;;;;13.40;99.90;;;;;;5048782;28;19928;-55
2022/10/25 05:25:49;;;;;;;;;;;13.30;99.90;;;;;;5044843;28;19936;-55
2022/10/25 05:28:16;;;;;;;;;;;13.30;99.90;;;;;;5047009;28;19933;-55
2022/10/25 05:30:43;;;;;;;;;;;13.40;99.90;;;;;;5043897;28;19928;-55
2022/10/25 05:33:10;;;;;;;;;;;13.30;99.90;;;;;;5043760;28;19933;-55
2022/10/25 05:35:36;;;;;;;;;;;13.30;99.90;;;;;;5047182;28;19929;-55
2022/10/25 05:38:03;;;;;;;;;;;13.30;99.90;;;;;;5047457;28;19939;-56
2022/10/25 05:40:29;;;;;;;;;;;13.40;99.90;;;;;;5042924;28;19928;-56
2022/10/25 05:42:57;;;;;;;;;;;13.40;99.90;;;;;;5046086;28;19938;-56
2022/10/25 05:45:24;;;;;;;;;;;13.40;99.90;;;;;;5048639;28;19929;-56
2022/10/25 05:47:51;;;;;;;;;;;13.40;99.90;;;;;;5047678;28;19932;-56
2022/10/25 05:50:17;;;;;;;;;;;13.40;99.90;;;;;;5049271;28;20863;-56
2022/10/25 05:52:44;;;;;;;;;;;13.50;99.90;;;;;;5048897;28;20331;-56
2022/10/25 05:55:11;;;;;;;;;;;13.50;99.90;;;;;;5049779;28;20889;-56
2022/10/25 05:57:37;;;;;;;;;;;13.50;99.90;;;;;;5049391;28;20297;-56
2022/10/25 06:00:06;;;;;;;;;;;13.50;99.90;;;;;;5049905;28;19929;-56
2022/10/25 06:02:34;;;;;;;;;;;13.50;99.90;;;;;;5049180;28;21495;-56
2022/10/25 06:05:00;;;;;;;;;;;13.50;99.90;;;;;;5049774;28;19933;-56
2022/10/25 06:07:27;;;;;;;;;;;13.50;99.90;;;;;;5049457;28;19934;-56
2022/10/25 06:09:54;;;;;;;;;;;13.50;99.90;;;;;;5049614;28;19984;-56
2022/10/25 06:12:20;;;;;;;;;;;13.50;99.90;;;;;;5049156;28;19935;-56
2022/10/25 06:14:47;;;;;;;;;;;13.50;99.90;;;;;;5050315;28;20584;-56
2022/10/25 06:17:15;;;;;;;;;;;13.50;99.90;;;;;;5049523;28;19940;-56
2022/10/25 06:19:42;;;;;;;;;;;13.50;99.90;;;;;;5049585;28;20023;-56
2022/10/25 06:22:08;;;;;;;;;;;13.50;99.90;;;;;;5048082;28;19932;-56
2022/10/25 06:24:35;;;;;;;;;;;13.50;99.90;;;;;;5048066;28;20403;-56
2022/10/25 06:27:01;;;;;;;;;;;13.50;99.90;;;;;;5049605;28;19943;-56
2022/10/25 06:29:28;;;;;;;;;;;13.50;99.90;;;;;;5049943;28;19963;-56
2022/10/25 06:31:55;;;;;;;;;;;13.50;99.90;;;;;;5048704;28;22127;-56
2022/10/25 06:34:23;;;;;;;;;;;13.50;99.90;;;;;;5048975;28;19928;-56
2022/10/25 06:36:49;;;;;;;;;;;13.50;99.90;;;;;;5049262;28;19940;-56
2022/10/25 06:39:16;;;;;;;;;;;13.40;99.90;;;;;;5049218;28;19929;-56
2022/10/25 06:41:43;;;;;;;;;;;13.40;99.90;;;;;;5049263;28;19933;-56
2022/10/25 06:44:09;;;;;;;;;;;13.40;99.90;;;;;;5048870;28;19928;-56
2022/10/25 06:46:37;;;;;;;;;;;13.40;99.90;;;;;;5049149;28;21640;-56
2022/10/25 06:49:04;;;;;;;;;;;13.40;99.90;;;;;;5048905;28;20015;-56
2022/10/25 06:51:33;;;;;;;;;;;13.40;99.90;;;;;;5048986;28;19933;-56
2022/10/25 06:54:00;;;;;;;;;;;13.40;99.90;;;;;;5048734;28;20487;-56
2022/10/25 06:56:28;;;;;;;;;;;13.40;99.90;;;;;;5049456;28;19932;-56
2022/10/25 06:58:56;;;;;;;;;;;13.40;99.90;;;;;;5052970;28;19929;-56
2022/10/25 07:01:23;;;;;;;;;;;13.40;99.90;;;;;;5052292;28;19928;-57
2022/10/25 07:03:52;;;;;;;;;;;13.40;99.90;;;;;;5051569;28;20035;-56
2022/10/25 07:06:21;;;;;;;;;;;13.40;99.90;;;;;;5052619;28;19933;-56
2022/10/25 07:08:52;;;;;;;;;;;13.40;99.90;;;;;;5053055;28;19929;-56
2022/10/25 07:11:19;;;;;;;;;;;13.40;99.90;;;;;;5052147;28;20040;-56
2022/10/25 07:13:46;;;;;;;;;;;13.40;99.90;;;;;;5051287;28;22311;-56
2022/10/25 07:16:14;;;;;;;;;;;13.40;99.90;;;;;;5052502;28;19933;-56
2022/10/25 07:18:41;;;;;;;;;;;13.40;99.90;;;;;;5052962;28;19928;-56
2022/10/25 07:21:08;;;;;;;;;;;13.40;99.90;;;;;;5051645;28;19939;-56
2022/10/25 07:23:40;;;;;;;;;;;13.50;99.90;;;;;;5052865;28;19929;-56
2022/10/25 07:26:08;;;;;;;;;;;13.50;99.90;;;;;;5051698;28;21672;-56
2022/10/25 07:28:35;;;;;;;;;;;13.50;99.90;;;;;;5050466;28;20848;-56
2022/10/25 07:31:02;;;;;;;;;;;13.60;99.90;;;;;;5049533;28;19929;-56
2022/10/25 07:33:29;;;;;;;;;;;13.60;99.90;;;;;;5050422;28;19936;-56
2022/10/25 07:35:56;;;;;;;;;;;13.60;99.90;;;;;;5050224;28;19933;-56
2022/10/25 07:38:23;;;;;;;;;;;13.70;99.90;;;;;;5049353;28;19929;-56
2022/10/25 07:40:54;;;;;;;;;;;13.70;99.90;;;;;;5050329;28;20038;-56
2022/10/25 07:43:22;;;;;;;;;;;13.70;99.90;;;;;;5045572;28;19928;-56
2022/10/25 07:45:49;;;;;;;;;;;13.80;99.90;;;;;;5049206;28;20451;-56
2022/10/25 07:48:16;;;;;;;;;;;13.70;99.90;;;;;;5048437;28;20112;-56
2022/10/25 07:50:43;;;;;;;;;;;13.80;99.90;;;;;;5049082;28;19929;-56
2022/10/25 07:53:09;;;;;;;;;;;13.80;99.90;;;;;;5049832;28;19936;-56
2022/10/25 07:55:36;;;;;;;;;;;13.80;99.90;;;;;;5050288;28;19932;-56
2022/10/25 07:58:03;;;;;;;;;;;13.80;99.90;;;;;;5048953;28;20429;-56
2022/10/25 08:00:32;;;;;;;;;;;13.90;99.90;;;;;;5050315;28;19936;-56
2022/10/25 08:02:58;;;;;;;;;;;13.90;99.90;;;;;;5049416;28;19936;-56
2022/10/25 08:05:25;;;;;;;;;;;14.00;99.90;;;;;;5049134;28;19992;-56
2022/10/25 08:07:52;;;;;;;;;;;14.00;99.90;;;;;;5049327;28;19929;-57
2022/10/25 08:10:19;;;;;;;;;;;14.00;99.90;;;;;;5049036;28;19935;-56
2022/10/25 08:12:46;;;;;;;;;;;14.10;99.90;;;;;;5049557;28;20418;-56
2022/10/25 08:15:12;;;;;;;;;;;14.10;99.90;;;;;;5049220;28;19971;-56
2022/10/25 08:17:40;;;;;;;;;;;14.10;99.90;;;;;;5049530;28;19940;-56
2022/10/25 08:20:07;;;;;;;;;;;14.10;99.90;;;;;;5049611;28;20525;-56
2022/10/25 08:22:34;;;;;;;;;;;14.20;99.90;;;;;;5049212;28;19929;-56
2022/10/25 08:25:01;;;;;;;;;;;14.20;99.90;;;;;;5048908;28;20385;-56
2022/10/25 08:27:28;;;;;;;;;;;14.30;99.90;;;;;;5048763;28;19963;-57
2022/10/25 08:29:54;;;;;;;;;;;14.30;99.90;;;;;;5048821;28;19933;-56
2022/10/25 08:32:21;;;;;;;;;;;14.40;99.90;;;;;;5048237;28;20683;-56
2022/10/25 08:34:49;;;;;;;;;;;14.40;99.90;;;;;;5049387;28;19933;-56
2022/10/25 08:37:16;;;;;;;;;;;14.40;99.90;;;;;;5048414;28;19929;-56
2022/10/25 08:39:43;;;;;;;;;;;14.40;99.90;;;;;;5047587;28;20403;-56
2022/10/25 08:42:13;;;;;;;;;;;14.40;99.90;;;;;;5046098;28;19951;-56
2022/10/25 08:44:44;;;;;;;;;;;14.50;99.90;;;;;;5048586;28;20587;-56
2022/10/25 08:47:12;;;;;;;;;;;14.40;99.90;;;;;;5048813;28;19928;-57
2022/10/25 08:49:43;;;;;;;;;;;14.50;99.90;;;;;;5047994;28;19929;-56
2022/10/25 08:52:17;;;;;;;;;;;14.50;99.90;;;;;;5047841;28;19959;-56
2022/10/25 08:54:45;;;;;;;;;;;14.50;99.90;;;;;;5048476;28;19939;-56
2022/10/25 08:57:18;;;;;;;;;;;14.40;99.90;;;;;;5048396;28;19999;-56
2022/10/25 08:59:47;;;;;;;;;;;14.50;99.90;;;;;;5048496;28;20074;-56
2022/10/25 09:02:17;;;;;;;;;;;14.50;99.90;;;;;;5049335;28;21015;-57
2022/10/25 09:04:43;;;;;;;;;;;14.50;99.90;;;;;;5047212;28;19956;-56
2022/10/25 09:07:14;;;;;;;;;;;14.60;99.90;;;;;;5048843;28;19928;-57
2022/10/25 09:09:45;;;;;;;;;;;14.60;99.90;;;;;;5049849;28;19935;-56
2022/10/25 09:12:18;;;;;;;;;;;14.70;99.90;;;;;;5047893;28;19936;-56
2022/10/25 09:14:48;;;;;;;;;;;14.70;99.90;;;;;;5049213;28;19932;-56
2022/10/25 09:17:17;;;;;;;;;;;14.70;99.90;;;;;;5049764;28;20319;-56
2022/10/25 09:19:50;;;;;;;;;;;14.70;99.90;;;;;;5049249;28;19928;-56
2022/10/25 09:22:20;;;;;;;;;;;14.70;99.90;;;;;;5049425;28;20351;-56
2022/10/25 09:24:50;;;;;;;;;;;14.80;99.90;;;;;;5049225;28;19939;-57
2022/10/25 09:27:20;;;;;;;;;;;14.90;99.90;;;;;;5048149;28;19929;-56
2022/10/25 09:29:50;;;;;;;;;;;14.90;99.90;;;;;;5048626;28;20582;-57
2022/10/25 09:32:18;;;;;;;;;;;14.90;99.90;;;;;;5048468;28;19935;-56
2022/10/25 09:34:45;;;;;;;;;;;15.00;99.90;;;;;;5048938;28;19936;-56
2022/10/25 09:37:16;;;;;;;;;;;15.10;99.90;;;;;;5049133;28;20079;-56
2022/10/25 09:39:45;;;;;;;;;;;15.20;99.90;;;;;;5047257;28;19929;-56
2022/10/25 09:42:17;;;;;;;;;;;15.20;99.90;;;;;;5048061;28;20390;-56
2022/10/25 09:44:46;;;;;;;;;;;15.30;99.90;;;;;;5047599;28;19933;-56
2022/10/25 09:47:17;;;;;;;;;;;15.30;99.90;;;;;;5048779;28;20413;-56
2022/10/25 09:49:48;;;;;;;;;;;15.30;99.90;;;;;;5048981;28;20557;-56
2022/10/25 09:52:19;;;;;;;;;;;15.30;99.90;;;;;;5046669;28;19970;-56
2022/10/25 09:54:50;;;;;;;;;;;15.40;99.90;;;;;;5046093;28;19939;-57
2022/10/25 09:57:18;;;;;;;;;;;15.30;99.90;;;;;;5047849;28;19928;-56
2022/10/25 09:59:48;;;;;;;;;;;15.30;99.90;;;;;;5048815;28;19929;-57
2022/10/25 10:02:17;;;;;;;;;;;15.30;99.90;;;;;;5047396;28;19929;-56
2022/10/25 10:04:44;;;;;;;;;;;15.30;99.90;;;;;;5047653;28;22076;-57
2022/10/25 10:07:14;;;;;;;;;;;15.30;99.90;;;;;;5048911;28;20402;-57
2022/10/25 10:09:41;;;;;;;;;;;15.20;99.90;;;;;;5045193;28;19968;-56
2022/10/25 10:12:14;;;;;;;;;;;15.20;99.90;;;;;;5043742;28;19928;-57
2022/10/25 10:14:45;;;;;;;;;;;15.20;99.90;;;;;;5045240;28;20423;-57
2022/10/25 10:17:13;;;;;;;;;;;15.20;99.90;;;;;;5046572;28;21852;-56
2022/10/25 10:19:40;;;;;;;;;;;15.20;99.90;;;;;;5046493;28;19929;-57
2022/10/25 10:22:08;;;;;;;;;;;15.30;99.90;;;;;;5048264;28;20943;-56
2022/10/25 10:24:37;;;;;;;;;;;15.30;99.90;;;;;;5045127;28;19932;-57
2022/10/25 10:27:06;;;;;;;;;;;15.30;99.90;;;;;;5045622;28;19928;-57
2022/10/25 10:29:33;;;;;;;;;;;15.40;99.90;;;;;;5043893;28;19939;-57
2022/10/25 10:32:03;;;;;;;;;;;15.40;99.90;;;;;;5040033;28;21006;-57
2022/10/25 10:34:31;;;;;;;;;;;15.50;99.90;;;;;;5040891;28;19940;-56
2022/10/25 10:37:01;;;;;;;;;;;15.50;99.90;;;;;;5042817;28;19933;-56
2022/10/25 10:39:28;;;;;;;;;;;15.60;99.90;;;;;;5041296;28;19928;-57
2022/10/25 10:41:59;;;;;;;;;;;15.60;99.90;;;;;;5040171;28;20047;-60
2022/10/25 10:44:27;;;;;;;;;;;15.60;99.90;;;;;;5044222;28;21387;-60
2022/10/25 10:46:55;;;;;;;;;;;15.70;99.90;;;;;;5042678;28;20307;-57
2022/10/25 10:49:30;;;;;;;;;;;15.60;99.90;;;;;;5040988;28;20154;-56
2022/10/25 10:51:57;;;;;;;;;;;15.70;99.90;;;;;;5043612;28;21738;-57
2022/10/25 10:54:25;;;;;;;;;;;15.70;99.90;;;;;;5044158;28;19932;-57
2022/10/25 10:56:53;;;;;;;;;;;15.80;99.90;;;;;;5045398;28;20462;-57
2022/10/25 10:59:27;;;;;;;;;;;15.90;99.90;;;;;;5041922;28;20242;-57
2022/10/25 11:01:55;;;;;;;;;;;16.00;99.90;;;;;;5044850;28;20392;-56
2022/10/25 11:04:21;;;;;;;;;;;16.00;99.90;;;;;;5043554;28;20019;-57
2022/10/25 11:06:49;;;;;;;;;;;16.10;99.90;;;;;;5044669;28;19946;-57
2022/10/25 11:09:21;;;;;;;;;;;16.10;99.90;;;;;;5045188;28;19929;-57
2022/10/25 11:12:04;;;;;;;;;;;16.10;99.90;;;;;;5045466;28;20054;-57
2022/10/25 11:14:31;;;;;;;;;;;16.10;99.90;;;;;;5045782;28;20392;-56
2022/10/25 11:17:00;;;;;;;;;;;16.10;99.90;;;;;;5046226;28;19971;-56
2022/10/25 11:19:40;;;;;;;;;;;16.20;99.90;;;;;;5045861;28;19929;-57
2022/10/25 11:22:16;;;;;;;;;;;16.20;99.90;;;;;;5044881;28;19978;-57
2022/10/25 11:24:47;;;;;;;;;;;16.30;99.90;;;;;;5046810;28;19940;-56
2022/10/25 11:27:19;;;;;;;;;;;16.40;99.90;;;;;;5046752;28;20387;-57
2022/10/25 11:29:51;;;;;;;;;;;16.40;99.90;;;;;;5046222;28;19933;-57
2022/10/25 11:32:27;;;;;;;;;;;16.50;99.90;;;;;;5046085;28;19935;-57
2022/10/25 11:34:59;;;;;;;;;;;16.50;99.90;;;;;;5045611;28;19933;-57
2022/10/25 11:37:29;;;;;;;;;;;16.60;99.90;;;;;;5047740;28;20341;-57
2022/10/25 11:40:02;;;;;;;;;;;16.60;99.90;;;;;;5046861;28;20472;-57
2022/10/25 11:42:38;;;;;;;;;;;16.80;99.90;;;;;;5040867;28;19929;-57
2022/10/25 11:45:20;;;;;;;;;;;16.90;99.90;;;;;;4926513;28;19933;-57
2022/10/25 11:47:52;;;;;;;;;;;17.00;99.90;;;;;;5044287;28;19928;-57
2022/10/25 11:50:25;;;;;;;;;;;17.00;99.90;;;;;;5044154;28;20778;-57
2022/10/25 11:53:15;;;;;;;;;;;17.00;99.90;;;;;;5043835;28;19966;-57
2022/10/25 11:55:45;;;;;;;;;;;17.00;99.90;;;;;;5039259;28;19933;-57
2022/10/25 11:58:20;;;;;;;;;;;16.90;99.90;;;;;;5045752;28;19929;-57
2022/10/25 12:00:52;;;;;;;;;;;16.80;99.90;;;;;;5045124;28;20292;-56
2022/10/25 12:03:25;;;;;;;;;;;16.80;99.90;;;;;;5045754;28;19928;-57
2022/10/25 12:05:55;;;;;;;;;;;16.70;99.90;;;;;;5047068;28;20400;-57
2022/10/25 12:08:34;;;;;;;;;;;16.70;99.90;;;;;;5044583;28;19928;-57
2022/10/25 12:11:03;;;;;;;;;;;16.70;99.90;;;;;;5045993;28;19929;-56
2022/10/25 12:13:32;;;;;;;;;;;16.60;99.90;;;;;;5045376;28;20494;-57
2022/10/25 12:15:59;;;;;;;;;;;16.70;99.90;;;;;;5047842;28;19939;-57
2022/10/25 12:18:29;;;;;;;;;;;16.70;99.90;;;;;;5047538;28;20071;-57
2022/10/25 12:20:56;;;;;;;;;;;16.70;99.90;;;;;;5047197;28;19929;-57
2022/10/25 12:23:24;;;;;;;;;;;16.80;99.90;;;;;;5046434;28;20400;-57
2022/10/25 12:25:55;;;;;;;;;;;16.80;99.90;;;;;;5047193;28;20426;-57
2022/10/25 12:28:25;;;;;;;;;;;16.80;99.90;;;;;;5045369;28;19929;-57
2022/10/25 12:30:53;;;;;;;;;;;16.80;99.90;;;;;;5047651;28;20032;-57
2022/10/25 12:33:24;;;;;;;;;;;16.80;99.90;;;;;;5047714;28;19928;-57
2022/10/25 12:35:54;;;;;;;;;;;16.80;99.90;;;;;;5048378;28;19932;-57
2022/10/25 12:38:25;;;;;;;;;;;16.80;99.90;;;;;;5047447;28;19928;-57
2022/10/25 12:40:56;;;;;;;;;;;16.80;99.90;;;;;;5046950;28;19928;-57
2022/10/25 12:43:24;;;;;;;;;;;16.80;99.90;;;;;;5045771;28;19936;-57
2022/10/25 12:46:09;;;;;;;;;;;16.90;99.90;;;;;;5047098;28;19933;-57
2022/10/25 12:48:47;;;;;;;;;;;16.80;99.90;;;;;;5046742;28;19939;-57
2022/10/25 12:51:19;;;;;;;;;;;16.80;99.90;;;;;;5045633;28;19940;-57
2022/10/25 12:53:55;;;;;;;;;;;16.80;99.90;;;;;;5044842;28;20091;-56
2022/10/25 12:56:29;;;;;;;;;;;16.80;99.90;;;;;;5048368;28;19939;-57
2022/10/25 12:59:02;;;;;;;;;;;16.80;99.90;;;;;;5047781;28;19929;-57
2022/10/25 13:01:34;;;;;;;;;;;16.80;99.90;;;;;;5047225;28;19929;-57
2022/10/25 13:04:17;;;;;;;;;;;16.80;99.90;;;;;;5046353;28;19936;-57
2022/10/25 13:06:45;;;;;;;;;;;16.80;99.90;;;;;;5045621;28;20431;-57
2022/10/25 13:09:13;;;;;;;;;;;16.80;99.90;;;;;;5046616;28;20547;-57
2022/10/25 13:11:43;;;;;;;;;;;16.80;99.90;;;;;;5047343;28;19940;-57
2022/10/25 13:14:18;;;;;;;;;;;16.70;99.90;;;;;;5045410;28;20513;-57
2022/10/25 13:16:45;;;;;;;;;;;16.70;99.90;;;;;;5046680;28;22048;-57
2022/10/25 13:19:22;;;;;;;;;;;16.70;99.90;;;;;;5046987;28;20001;-56
2022/10/25 13:22:06;;;;;;;;;;;16.70;99.90;;;;;;5046039;28;20030;-57
2022/10/25 13:24:37;;;;;;;;;;;16.70;99.90;;;;;;5046640;28;19935;-57
2022/10/25 13:27:12;;;;;;;;;;;16.60;99.90;;;;;;5044752;28;19932;-57
2022/10/25 13:29:47;;;;;;;;;;;16.60;99.90;;;;;;5045400;28;19971;-57
2022/10/25 13:32:16;;;;;;;;;;;16.50;99.90;;;;;;5046007;28;20531;-57
2022/10/25 13:34:42;;;;;;;;;;;16.50;99.90;;;;;;5047206;28;19936;-57
2022/10/25 13:37:24;;;;;;;;;;;16.50;99.90;;;;;;5045107;28;19933;-57
2022/10/25 13:39:53;;;;;;;;;;;16.50;99.90;;;;;;5044945;28;20023;-57
2022/10/25 13:42:22;;;;;;;;;;;16.50;99.90;;;;;;5043591;28;20246;-56
2022/10/25 13:44:53;;;;;;;;;;;16.40;99.90;;;;;;5044380;28;19935;-57
2022/10/25 13:47:31;;;;;;;;;;;16.40;99.90;;;;;;5044719;28;19979;-57
2022/10/25 13:49:58;;;;;;;;;;;16.40;99.90;;;;;;5041632;28;19940;-56
2022/10/25 13:52:28;;;;;;;;;;;16.30;99.90;;;;;;5043536;28;20715;-56
2022/10/25 13:54:56;;;;;;;;;;;16.30;99.90;;;;;;5044777;28;19929;-57
2022/10/25 13:57:41;;;;;;;;;;;16.20;99.90;;;;;;5045340;28;19939;-56
2022/10/25 14:00:12;;;;;;;;;;;16.20;99.90;;;;;;5045961;28;19951;-57
2022/10/25 14:02:54;;;;;;;;;;;16.20;99.90;;;;;;5046301;28;20007;-57
2022/10/25 14:05:35;;;;;;;;;;;16.20;99.90;;;;;;5045062;28;19933;-57
2022/10/25 14:08:11;;;;;;;;;;;16.20;99.90;;;;;;5044647;28;19932;-57
2022/10/25 14:10:38;;;;;;;;;;;16.10;99.90;;;;;;5046213;28;20062;-57
2022/10/25 14:13:18;;;;;;;;;;;16.10;99.90;;;;;;5043312;28;20740;-56
2022/10/25 14:15:49;;;;;;;;;;;16.10;99.90;;;;;;5045153;28;19998;-57
2022/10/25 14:18:18;;;;;;;;;;;16.10;99.90;;;;;;5041116;28;19937;-57
2022/10/25 14:20:46;;;;;;;;;;;16.00;99.90;;;;;;5036391;28;19936;-57
2022/10/25 14:23:14;;;;;;;;;;;16.10;99.90;;;;;;5043952;28;21478;-57
2022/10/25 14:25:42;;;;;;;;;;;16.10;99.90;;;;;;5043226;28;19928;-57
2022/10/25 14:28:13;;;;;;;;;;;16.10;99.90;;;;;;5036009;28;19933;-57